Aviation Digital Data Service (ADDS)

Output produced by TAFs form (1330 UTC 16 August 2017)
found at http://aviationweather.gov/adds/tafs/
 
KFMN 161124Z 1612/1712 07006KT P6SM SKC 
     FM161700 24006KT P6SM SKC 
     FM162000 27011KT P6SM SKC 
     FM170200 29006KT P6SM SCT100